Time;durP1;ratioP1;P1;durP2;ratioP2;P2;SDS_P1;SDS_P2;PMS_P1;PMS_P2;Temp;Humidity;BMP_temperature;BMP_pressure;BME280_temperature;BME280_humidity;BME280_pressure;Samples;Min_cycle;Max_cycle;Signal;HPM_P1;HPM_P2
2021/10/29 00:01:31;;;;;;;58.10;37.20;;;8.00;99.90;;;;;;4895138;29;20087;-84
2021/10/29 00:03:58;;;;;;;59.78;36.60;;;8.00;99.90;;;;;;4895234;29;20426;-84
2021/10/29 00:06:26;;;;;;;64.65;37.83;;;8.00;99.90;;;;;;4893495;29;20480;-83
2021/10/29 00:08:55;;;;;;;61.53;37.47;;;7.90;99.90;;;;;;4877919;29;20059;-82
2021/10/29 00:11:22;;;;;;;51.65;35.53;;;8.00;99.90;;;;;;4861766;29;20127;-83
2021/10/29 00:13:49;;;;;;;50.85;34.38;;;7.80;99.90;;;;;;4862449;29;20451;-81
2021/10/29 00:16:20;;;;;;;56.65;35.10;;;7.70;99.90;;;;;;4909020;29;20041;-82
2021/10/29 00:18:47;;;;;;;48.20;32.20;;;7.80;99.90;;;;;;4877781;29;20045;-83
2021/10/29 00:21:15;;;;;;;48.05;32.05;;;7.70;99.90;;;;;;4862101;29;20128;-84
2021/10/29 00:23:43;;;;;;;48.08;31.48;;;7.80;99.90;;;;;;4877694;29;20057;-84
2021/10/29 00:26:11;;;;;;;51.28;31.67;;;7.70;99.90;;;;;;4862329;29;20401;-81
2021/10/29 00:28:38;;;;;;;49.75;30.63;;;7.70;99.90;;;;;;4878311;29;20081;-84
2021/10/29 00:31:05;;;;;;;43.65;29.38;;;7.70;99.90;;;;;;4892810;29;20044;-81
2021/10/29 00:33:33;;;;;;;44.10;29.05;;;7.80;99.90;;;;;;4892974;29;20049;-83
2021/10/29 00:36:00;;;;;;;43.65;28.83;;;7.80;99.90;;;;;;4893066;29;20037;-83
2021/10/29 00:38:28;;;;;;;45.10;29.38;;;7.90;99.90;;;;;;4877264;29;20053;-84
2021/10/29 00:40:56;;;;;;;57.85;31.38;;;7.70;99.90;;;;;;4893619;29;20181;-85
2021/10/29 00:43:24;;;;;;;46.53;32.10;;;7.70;99.90;;;;;;4886569;29;20037;-86
2021/10/29 01:04:46;;;;;;;61.30;35.00;;;7.50;99.90;;;;;;4874458;29;20105;-85
2021/10/29 01:07:18;;;;;;;48.10;33.50;;;7.50;99.90;;;;;;4866901;29;20206;-92
2021/10/29 01:10:11;;;;;;;49.63;32.55;;;7.50;99.90;;;;;;4915677;29;20381;-88
2021/10/29 01:12:40;;;;;;;56.58;33.38;;;7.40;99.90;;;;;;4916151;29;20559;-89
2021/10/29 01:15:09;;;;;;;53.08;33.50;;;7.50;99.90;;;;;;4915550;29;20116;-86
2021/10/29 01:17:37;;;;;;;47.90;32.65;;;7.50;99.90;;;;;;4897643;29;20052;-87
2021/10/29 01:20:06;;;;;;;58.55;33.67;;;7.60;99.90;;;;;;4899402;29;20128;-89
2021/10/29 01:22:34;;;;;;;53.67;32.67;;;7.60;99.90;;;;;;4897014;29;20405;-87
2021/10/29 01:25:02;;;;;;;53.20;34.65;;;7.70;99.90;;;;;;4898422;29;20449;-89
2021/10/29 01:27:58;;;;;;;54.47;33.70;;;7.60;99.90;;;;;;4898021;29;20059;-81
2021/10/29 01:34:42;;;;;;;55.80;33.80;;;7.50;99.90;;;;;;4884080;29;20051;-89
2021/10/29 01:37:12;;;;;;;57.42;35.35;;;7.70;99.90;;;;;;4895746;29;20478;-87
2021/10/29 01:39:40;;;;;;;53.53;34.90;;;7.60;99.90;;;;;;4892412;29;20132;-89
2021/10/29 01:42:08;;;;;;;53.38;33.53;;;7.50;99.90;;;;;;4900375;29;20306;-87
2021/10/29 01:44:36;;;;;;;58.58;34.55;;;7.40;99.90;;;;;;4914461;29;20064;-87
2021/10/29 01:47:29;;;;;;;52.65;34.08;;;7.30;99.90;;;;;;4900693;29;20127;-86
2021/10/29 01:49:57;;;;;;;51.30;32.55;;;7.40;99.90;;;;;;4897970;29;20453;-90
2021/10/29 01:52:25;;;;;;;52.70;32.22;;;7.30;99.90;;;;;;4898863;29;20112;-85
2021/10/29 01:54:52;;;;;;;51.92;31.63;;;7.10;99.90;;;;;;4900464;29;20048;-84
2021/10/29 01:57:20;;;;;;;53.50;33.35;;;7.10;99.90;;;;;;4898848;29;20045;-85
2021/10/29 01:59:50;;;;;;;57.47;33.05;;;7.00;99.90;;;;;;4901720;29;20044;-84
2021/10/29 02:02:18;;;;;;;57.42;35.13;;;7.00;99.90;;;;;;4899384;29;20049;-83
2021/10/29 02:04:45;;;;;;;59.67;34.17;;;6.90;99.90;;;;;;4917616;29;20108;-87
2021/10/29 02:07:16;;;;;;;55.63;34.72;;;6.90;99.90;;;;;;4905983;29;20159;-88
2021/10/29 02:09:47;;;;;;;53.90;33.65;;;6.90;99.90;;;;;;4919820;29;20127;-85
2021/10/29 02:12:14;;;;;;;52.08;34.72;;;7.00;99.90;;;;;;4917666;29;20040;-90
2021/10/29 02:14:42;;;;;;;59.53;34.65;;;7.10;99.90;;;;;;4903526;29;20103;-87
2021/10/29 02:17:11;;;;;;;62.90;33.10;;;6.90;99.90;;;;;;4917704;29;20076;-88
2021/10/29 02:19:39;;;;;;;52.80;30.00;;;6.80;99.90;;;;;;4919538;29;20051;-85
2021/10/29 02:22:06;;;;;;;46.58;27.90;;;6.80;99.90;;;;;;4902579;29;20044;-86
2021/10/29 02:24:34;;;;;;;37.30;26.23;;;6.80;99.90;;;;;;4919687;29;20449;-88
2021/10/29 02:27:04;;;;;;;44.58;26.38;;;6.80;99.90;;;;;;4923162;29;20119;-86
2021/10/29 02:29:31;;;;;;;39.60;25.02;;;6.50;99.90;;;;;;4918502;29;20139;-89
2021/10/29 02:31:59;;;;;;;44.97;25.65;;;6.60;99.90;;;;;;4917633;29;20060;-85
2021/10/29 02:34:26;;;;;;;40.28;25.60;;;6.80;99.90;;;;;;4918186;29;20495;-86
2021/10/29 02:36:54;;;;;;;41.88;25.65;;;6.80;99.90;;;;;;4919192;29;20122;-87
2021/10/29 02:39:21;;;;;;;42.00;25.92;;;6.50;99.90;;;;;;4920083;29;20408;-84
2021/10/29 02:41:48;;;;;;;36.72;24.40;;;6.60;99.90;;;;;;4919607;29;20067;-88
2021/10/29 02:44:16;;;;;;;36.60;25.02;;;6.40;99.90;;;;;;4920432;29;20071;-87
2021/10/29 02:46:46;;;;;;;33.30;23.67;;;6.30;99.90;;;;;;4904513;29;20091;-89
2021/10/29 02:49:17;;;;;;;35.03;23.70;;;6.50;99.90;;;;;;4920093;29;20123;-88
2021/10/29 02:51:44;;;;;;;39.47;25.10;;;6.60;99.90;;;;;;4903438;29;20040;-84
2021/10/29 02:54:12;;;;;;;45.30;25.33;;;6.70;99.90;;;;;;4918713;29;20104;-86
2021/10/29 02:57:14;;;;;;;39.67;26.05;;;6.70;99.90;;;;;;4919502;29;20072;-90
2021/10/29 02:59:41;;;;;;;38.67;25.73;;;6.50;99.90;;;;;;4904189;29;20138;-89
2021/10/29 03:02:09;;;;;;;37.45;25.13;;;6.40;99.90;;;;;;4917690;29;20495;-85
2021/10/29 03:04:36;;;;;;;39.80;25.10;;;6.40;99.90;;;;;;4917851;29;20153;-82
2021/10/29 03:07:04;;;;;;;39.45;25.58;;;6.40;99.90;;;;;;4916936;29;20067;-85
2021/10/29 03:14:08;;;;;;;40.78;25.52;;;6.40;99.90;;;;;;4879370;29;20052;-87
2021/10/29 03:28:14;;;;;;;35.92;23.23;;;6.40;99.90;;;;;;4815525;29;20040;-88
2021/10/29 03:30:42;;;;;;;32.67;21.33;;;6.50;99.90;;;;;;4920418;29;20060;-87
2021/10/29 03:33:13;;;;;;;34.45;21.38;;;6.40;99.90;;;;;;4919662;29;20063;-88
2021/10/29 03:35:49;;;;;;;35.13;21.85;;;6.30;99.90;;;;;;4888987;29;20099;-92
2021/10/29 03:38:40;;;;;;;34.15;21.10;;;6.30;99.90;;;;;;4920640;29;20079;-85
2021/10/29 03:41:33;;;;;;;;;;;;;;;;;;;;;
2021/10/29 03:47:16;;;;;;;32.05;19.80;;;6.20;99.90;;;;;;4918178;29;19930;-85
2021/10/29 03:49:52;;;;;;;31.35;20.35;;;6.30;99.90;;;;;;4918540;29;20132;-85
2021/10/29 03:53:13;;;;;;;26.95;19.63;;;6.20;99.90;;;;;;4918115;29;20059;-85
2021/10/29 03:55:16;;;;;;;32.88;18.90;;;5.70;99.90;;;;;;4908017;29;20107;-85
2021/10/29 03:57:44;;;;;;;30.05;19.85;;;5.10;99.90;;;;;;4917033;29;20064;-83
2021/10/29 04:04:10;;;;;;;30.20;19.38;;;5.90;99.90;;;;;;4900835;29;20377;-84
2021/10/29 04:06:38;;;;;;;29.60;19.52;;;6.20;99.90;;;;;;4917712;29;20048;-86
2021/10/29 04:09:31;;;;;;;29.42;20.10;;;6.30;99.90;;;;;;4900504;29;20078;-83
2021/10/29 04:16:11;;;;;;;37.47;19.27;;;6.40;99.90;;;;;;4919725;29;20088;-82
2021/10/29 04:19:30;;;;;;;36.65;21.35;;;6.20;99.90;;;;;;4917628;29;20047;-89
2021/10/29 04:22:08;;;;;;;34.17;19.80;;;6.40;99.90;;;;;;4901112;29;20055;-84
2021/10/29 04:24:45;;;;;;;31.20;20.10;;;6.50;99.90;;;;;;4917749;29;20135;-89
2021/10/29 04:27:20;;;;;;;28.30;19.20;;;6.30;99.90;;;;;;4901693;29;20449;-85
2021/10/29 04:29:53;;;;;;;28.15;18.25;;;6.40;99.90;;;;;;4915778;29;20051;-87
2021/10/29 04:32:25;;;;;;;26.30;18.52;;;6.20;99.90;;;;;;4917503;29;20044;-92
2021/10/29 04:34:53;;;;;;;28.05;19.58;;;6.30;99.90;;;;;;4917537;29;20052;-86
2021/10/29 04:37:22;;;;;;;36.33;20.92;;;6.30;99.90;;;;;;4886392;29;20059;-86
2021/10/29 04:39:50;;;;;;;27.48;19.90;;;6.40;99.90;;;;;;4918126;29;20079;-91
2021/10/29 04:42:20;;;;;;;29.77;18.60;;;6.40;99.90;;;;;;4918794;29;20052;-89
2021/10/29 04:44:50;;;;;;;30.95;20.00;;;6.40;99.90;;;;;;4917704;29;20090;-90
2021/10/29 04:47:44;;;;;;;31.52;20.27;;;6.50;99.90;;;;;;4900787;29;20056;-86
2021/10/29 04:50:11;;;;;;;37.90;20.15;;;6.60;99.90;;;;;;4916189;29;20416;-86
2021/10/29 04:52:42;;;;;;;29.83;18.67;;;6.10;99.90;;;;;;4901091;29;20052;-83
2021/10/29 04:55:09;;;;;;;27.15;17.88;;;6.20;99.90;;;;;;4916176;29;20123;-82
2021/10/29 04:57:37;;;;;;;49.97;28.48;;;6.20;99.90;;;;;;4917746;29;20044;-84
2021/10/29 05:00:06;;;;;;;148.25;80.65;;;6.20;99.90;;;;;;4915760;29;20074;-85
2021/10/29 05:02:34;;;;;;;48.13;28.73;;;6.60;99.90;;;;;;4895818;29;20056;-86
2021/10/29 05:05:31;;;;;;;54.08;33.30;;;6.60;99.90;;;;;;4796236;29;20860;-84
2021/10/29 05:08:01;;;;;;;75.13;42.85;;;6.60;99.90;;;;;;4899880;29;20068;-86
2021/10/29 05:10:29;;;;;;;89.53;49.35;;;6.90;99.90;;;;;;4911719;29;20123;-85
2021/10/29 05:13:10;;;;;;;80.90;43.40;;;6.90;99.90;;;;;;4877563;29;20896;-86
2021/10/29 05:15:38;;;;;;;138.90;74.55;;;6.80;99.90;;;;;;4900742;29;20213;-82
2021/10/29 05:18:05;;;;;;;55.40;33.60;;;6.80;99.90;;;;;;4909227;29;20481;-81
2021/10/29 05:20:32;;;;;;;42.85;26.20;;;6.40;99.90;;;;;;4908945;29;20104;-80
2021/10/29 05:23:00;;;;;;;41.30;25.13;;;6.30;99.90;;;;;;4894326;29;20425;-79
2021/10/29 05:25:27;;;;;;;44.30;26.35;;;6.20;99.90;;;;;;4909474;29;20060;-83
2021/10/29 05:27:54;;;;;;;42.63;26.88;;;6.10;99.90;;;;;;4895775;29;20072;-79
2021/10/29 05:30:22;;;;;;;48.65;28.17;;;6.10;99.90;;;;;;4895555;29;20450;-80
2021/10/29 05:32:49;;;;;;;47.83;29.27;;;6.10;99.90;;;;;;4898010;29;20094;-81
2021/10/29 05:35:16;;;;;;;46.13;28.80;;;6.00;99.90;;;;;;4913168;29;20083;-82
2021/10/29 05:37:44;;;;;;;79.22;43.15;;;6.00;99.90;;;;;;4898762;29;20083;-84
2021/10/29 05:40:12;;;;;;;99.82;57.58;;;6.50;99.90;;;;;;4898829;29;20483;-80
2021/10/29 05:42:40;;;;;;;45.90;30.80;;;6.70;99.90;;;;;;4898187;29;20049;-82
2021/10/29 05:45:10;;;;;;;42.63;26.85;;;6.20;99.90;;;;;;4878937;29;20127;-81
2021/10/29 05:47:38;;;;;;;36.88;26.10;;;6.00;99.90;;;;;;4879616;29;20059;-82
2021/10/29 05:50:09;;;;;;;39.88;24.48;;;6.00;99.90;;;;;;4880116;29;20124;-81
2021/10/29 05:52:41;;;;;;;38.28;25.90;;;6.10;99.90;;;;;;4881005;29;20558;-82
2021/10/29 05:55:14;;;;;;;37.90;25.10;;;6.20;99.90;;;;;;4879921;29;20048;-81
2021/10/29 05:57:53;;;;;;;34.08;24.08;;;6.50;99.90;;;;;;4879776;29;20131;-82
2021/10/29 06:00:29;;;;;;;39.53;25.20;;;6.40;99.90;;;;;;4881242;29;20041;-82
2021/10/29 06:03:05;;;;;;;32.40;23.02;;;6.20;99.90;;;;;;4879470;29;20053;-81
2021/10/29 06:05:33;;;;;;;38.08;25.98;;;6.30;99.90;;;;;;4879766;29;20076;-81
2021/10/29 06:08:01;;;;;;;39.60;25.45;;;6.40;99.90;;;;;;4893351;29;20053;-80
2021/10/29 06:10:28;;;;;;;39.65;25.88;;;6.40;99.90;;;;;;4879848;29;20075;-81
2021/10/29 06:12:55;;;;;;;34.92;25.30;;;6.50;99.90;;;;;;4880828;29;20132;-82
2021/10/29 06:15:23;;;;;;;35.38;23.08;;;6.70;99.90;;;;;;4881114;29;20045;-81
2021/10/29 06:17:51;;;;;;;33.42;21.55;;;6.80;99.90;;;;;;4879531;29;20128;-83
2021/10/29 06:20:20;;;;;;;33.97;21.77;;;6.60;99.90;;;;;;4878551;29;20581;-82
2021/10/29 06:22:50;;;;;;;35.10;22.67;;;6.50;99.90;;;;;;4879405;29;20112;-82
2021/10/29 06:25:22;;;;;;;36.80;24.10;;;6.50;99.90;;;;;;4879967;29;20136;-81
2021/10/29 06:28:12;;;;;;;42.42;24.98;;;6.60;99.90;;;;;;4862607;29;20049;-82
2021/10/29 06:30:42;;;;;;;36.97;23.13;;;6.60;99.90;;;;;;4877938;29;20057;-79
2021/10/29 06:33:11;;;;;;;34.72;23.48;;;6.60;99.90;;;;;;4879028;29;20053;-81
2021/10/29 06:35:40;;;;;;;33.78;23.45;;;6.90;99.90;;;;;;4878863;29;20045;-83
2021/10/29 06:38:12;;;;;;;38.92;25.65;;;7.00;99.90;;;;;;4880230;29;20104;-82
2021/10/29 06:40:45;;;;;;;37.20;22.70;;;7.20;99.90;;;;;;4894703;29;20043;-83
2021/10/29 06:43:26;;;;;;;37.75;23.23;;;7.40;99.90;;;;;;4894341;29;20074;-80
2021/10/29 06:48:36;;;;;;;43.85;27.08;;;6.80;99.90;;;;;;4879139;29;20061;-82
2021/10/29 06:59:30;;;;;;;55.70;33.33;;;7.20;99.90;;;;;;4879897;29;20398;-82
2021/10/29 07:02:43;;;;;;;47.58;33.63;;;7.40;99.90;;;;;;4878470;29;20131;-82
2021/10/29 07:40:47;;;;;;;41.00;26.23;;;9.20;99.90;;;;;;4897935;29;20052;-82
2021/10/29 07:43:29;;;;;;;35.97;25.33;;;9.00;99.90;;;;;;4896379;29;20403;-81
2021/10/29 07:45:56;;;;;;;47.72;27.88;;;9.30;99.90;;;;;;4899860;29;20142;-84
2021/10/29 07:48:24;;;;;;;45.45;29.58;;;9.80;99.90;;;;;;4916307;29;20047;-84
2021/10/29 07:50:51;;;;;;;45.53;30.02;;;9.80;99.90;;;;;;4915515;29;20067;-86
2021/10/29 07:53:19;;;;;;;42.92;26.95;;;9.90;99.90;;;;;;4884578;29;20060;-82
2021/10/29 07:55:46;;;;;;;44.65;27.02;;;9.90;99.90;;;;;;4914787;29;20076;-82
2021/10/29 07:58:15;;;;;;;38.20;25.88;;;10.00;99.90;;;;;;4915015;29;20143;-84
2021/10/29 08:00:42;;;;;;;41.47;26.65;;;10.00;99.90;;;;;;4915699;29;20056;-83
2021/10/29 08:03:10;;;;;;;41.22;27.27;;;10.50;99.90;;;;;;4916482;29;20381;-82
2021/10/29 08:05:37;;;;;;;39.20;26.10;;;10.50;99.90;;;;;;4915318;29;20052;-83
2021/10/29 08:08:06;;;;;;;36.03;26.08;;;10.30;99.90;;;;;;4916304;29;20056;-83
2021/10/29 08:10:34;;;;;;;37.17;23.95;;;10.00;99.90;;;;;;4900385;29;20131;-83
2021/10/29 08:13:04;;;;;;;33.97;24.45;;;10.20;99.90;;;;;;4916532;29;20511;-83
2021/10/29 08:15:35;;;;;;;34.10;24.67;;;10.20;99.90;;;;;;4918329;29;20090;-84
2021/10/29 08:18:05;;;;;;;36.40;25.45;;;10.40;99.90;;;;;;4917383;29;20458;-84
2021/10/29 08:20:35;;;;;;;38.33;26.40;;;10.80;99.90;;;;;;4900731;29;20078;-82
2021/10/29 08:23:05;;;;;;;34.25;25.08;;;11.00;99.90;;;;;;4916452;29;20048;-84
2021/10/29 08:25:32;;;;;;;38.40;25.17;;;11.60;99.90;;;;;;4915899;29;20115;-84
2021/10/29 08:28:00;;;;;;;33.67;25.10;;;11.40;99.90;;;;;;4916319;29;20055;-82
2021/10/29 08:30:47;;;;;;;38.22;24.77;;;11.60;99.90;;;;;;4915931;29;20411;-83
2021/10/29 08:33:14;;;;;;;34.60;25.85;;;11.80;99.90;;;;;;4899260;29;20059;-83
2021/10/29 08:35:42;;;;;;;34.70;24.73;;;12.10;99.90;;;;;;4915273;29;20126;-85
2021/10/29 08:38:10;;;;;;;35.47;23.92;;;11.90;99.90;;;;;;4900273;29;20071;-86
2021/10/29 08:40:37;;;;;;;40.08;27.20;;;12.50;99.90;;;;;;4916110;29;20047;-88
2021/10/29 08:43:05;;;;;;;41.28;26.90;;;13.70;99.90;;;;;;4916826;29;20058;-83
2021/10/29 08:45:33;;;;;;;35.47;23.25;;;14.40;99.90;;;;;;4890181;29;20056;-86
2021/10/29 08:48:01;;;;;;;32.67;23.80;;;14.10;99.90;;;;;;4881523;29;20076;-85
2021/10/29 08:50:28;;;;;;;33.33;23.00;;;13.90;99.90;;;;;;4897566;29;20075;-81
2021/10/29 08:52:58;;;;;;;32.95;22.27;;;14.20;99.90;;;;;;4897381;29;20044;-81
2021/10/29 08:55:27;;;;;;;30.77;21.65;;;14.30;99.90;;;;;;4880416;29;20670;-81
2021/10/29 08:57:56;;;;;;;30.27;20.02;;;14.40;99.90;;;;;;4897027;29;20072;-82
2021/10/29 09:00:27;;;;;;;29.77;19.52;;;14.50;99.90;;;;;;4879929;29;20053;-79
2021/10/29 09:05:45;;;;;;;30.25;20.50;;;14.90;99.10;;;;;;4902912;29;20056;-81
2021/10/29 09:08:27;;;;;;;32.50;21.52;;;14.90;99.90;;;;;;4914895;29;20119;-79
2021/10/29 09:32:54;;;;;;;35.75;23.88;;;16.10;97.40;;;;;;4897880;29;20444;-77
2021/10/29 09:35:27;;;;;;;40.58;24.60;;;16.40;95.90;;;;;;4913877;29;20064;-77
2021/10/29 09:38:03;;;;;;;32.20;23.73;;;16.40;95.30;;;;;;4915099;29;20044;-78
2021/10/29 09:40:53;;;;;;;34.58;22.05;;;16.60;95.70;;;;;;4914763;29;20127;-77
2021/10/29 09:43:24;;;;;;;30.38;20.13;;;16.60;95.30;;;;;;4897606;29;20056;-78
2021/10/29 09:45:58;;;;;;;28.27;19.13;;;16.80;94.50;;;;;;4914501;29;20045;-80
2021/10/29 09:48:45;;;;;;;28.67;20.02;;;17.20;94.30;;;;;;4914939;29;20392;-84
2021/10/29 09:51:16;;;;;;;26.98;19.55;;;17.00;92.30;;;;;;4898581;29;20051;-83
2021/10/29 09:54:04;;;;;;;26.52;19.83;;;17.00;92.50;;;;;;4898438;29;20071;-82
2021/10/29 09:59:01;;;;;;;27.20;18.63;;;16.80;94.10;;;;;;4915073;29;20123;-82
2021/10/29 10:01:29;;;;;;;26.63;18.63;;;17.50;93.10;;;;;;4915430;29;20047;-82
2021/10/29 10:04:00;;;;;;;24.20;17.20;;;18.00;92.40;;;;;;4914761;29;20044;-82
2021/10/29 10:06:31;;;;;;;25.73;17.17;;;17.70;91.50;;;;;;4913065;29;20056;-79
2021/10/29 10:09:00;;;;;;;23.63;15.13;;;17.40;92.10;;;;;;4915266;29;20054;-84
2021/10/29 10:11:28;;;;;;;23.95;17.05;;;17.30;91.60;;;;;;4915048;29;20044;-80
2021/10/29 10:13:57;;;;;;;24.08;16.08;;;17.70;92.00;;;;;;4914414;29;20044;-81
2021/10/29 10:16:27;;;;;;;25.13;17.45;;;17.80;91.60;;;;;;4913787;29;20040;-83
2021/10/29 10:18:56;;;;;;;22.60;17.23;;;17.70;91.40;;;;;;4917663;29;20126;-84
2021/10/29 10:21:26;;;;;;;28.45;19.60;;;17.80;91.30;;;;;;4916544;29;20036;-83
2021/10/29 10:23:57;;;;;;;28.48;17.75;;;18.20;91.90;;;;;;4901379;29;20135;-86
2021/10/29 10:45:44;;;;;;;22.92;14.82;;;18.80;89.20;;;;;;4916614;29;20130;-77
2021/10/29 10:48:14;;;;;;;20.38;14.13;;;17.90;90.30;;;;;;4918014;29;20036;-81
2021/10/29 10:50:46;;;;;;;20.95;14.82;;;18.60;90.20;;;;;;4917598;29;20492;-77
2021/10/29 10:53:19;;;;;;;21.48;15.25;;;18.70;87.70;;;;;;4916629;29;20107;-79
2021/10/29 11:01:59;;;;;;;21.05;13.40;;;19.50;86.00;;;;;;4916488;29;20040;-83
2021/10/29 11:10:11;;;;;;;20.27;13.52;;;19.20;85.60;;;;;;4917504;29;20160;-79
2021/10/29 11:12:41;;;;;;;20.00;13.32;;;19.60;84.00;;;;;;4917563;29;20040;-83
2021/10/29 11:15:17;;;;;;;19.60;13.40;;;20.10;83.90;;;;;;4917435;29;20412;-80
2021/10/29 11:17:52;;;;;;;16.80;13.00;;;20.50;81.10;;;;;;4918404;29;20040;-86
2021/10/29 11:20:53;;;;;;;20.17;13.10;;;20.50;80.00;;;;;;4918069;29;20040;-81
2021/10/29 11:23:25;;;;;;;16.35;12.32;;;19.70;78.80;;;;;;4906637;29;20064;-84
2021/10/29 11:26:06;;;;;;;18.95;12.98;;;19.90;80.20;;;;;;4917885;29;20122;-85
2021/10/29 11:28:38;;;;;;;29.08;13.57;;;19.50;79.90;;;;;;4917729;29;20127;-84
2021/10/29 11:31:18;;;;;;;19.77;12.68;;;19.10;82.10;;;;;;4917451;29;20044;-84
2021/10/29 11:33:50;;;;;;;18.92;13.27;;;19.90;80.60;;;;;;4901366;29;20044;-84
2021/10/29 11:36:22;;;;;;;19.55;12.48;;;18.80;82.90;;;;;;4917240;29;20108;-83
2021/10/29 11:38:51;;;;;;;17.10;12.48;;;19.80;81.00;;;;;;4917272;29;20040;-81
2021/10/29 11:41:21;;;;;;;17.85;12.70;;;20.20;79.10;;;;;;4916152;29;20050;-80
2021/10/29 11:43:49;;;;;;;18.02;12.82;;;19.80;79.00;;;;;;4915047;29;20051;-82
2021/10/29 11:46:22;;;;;;;16.80;11.10;;;19.70;78.40;;;;;;4916762;29;20048;-79
2021/10/29 11:48:50;;;;;;;17.48;12.05;;;19.80;77.80;;;;;;4914665;29;20040;-84
2021/10/29 11:51:20;;;;;;;16.90;12.63;;;19.60;78.70;;;;;;4916296;29;20044;-80
2021/10/29 11:54:10;;;;;;;18.15;13.27;;;19.30;79.40;;;;;;4899356;29;20143;-81
2021/10/29 12:07:20;;;;;;;17.15;11.43;;;20.00;77.30;;;;;;4916218;29;20070;-80
2021/10/29 12:09:50;;;;;;;19.67;12.18;;;19.50;77.50;;;;;;4915828;29;20115;-79
2021/10/29 12:12:21;;;;;;;18.40;12.35;;;19.90;77.80;;;;;;4915570;29;20068;-80
2021/10/29 12:14:51;;;;;;;15.25;11.40;;;20.50;75.70;;;;;;4915966;29;20040;-80
2021/10/29 12:17:31;;;;;;;14.63;11.00;;;20.50;75.70;;;;;;4915760;29;20432;-83
2021/10/29 12:20:02;;;;;;;14.25;9.95;;;21.40;72.10;;;;;;4915528;29;20043;-81
2021/10/29 12:25:24;;;;;;;17.88;10.85;;;26.80;58.40;;;;;;4916937;29;20120;-82
2021/10/29 12:30:29;;;;;;;14.68;9.98;;;28.70;50.90;;;;;;4915533;29;20123;-80
2021/10/29 13:01:25;;;;;;;12.13;8.63;;;21.60;61.20;;;;;;4916968;29;20437;-86
2021/10/29 13:02:06;;;;;;;12.45;7.65;;;22.10;61.00;;;;;;4914962;29;20396;-81
2021/10/29 13:04:39;;;;;;;10.73;7.75;;;22.10;59.70;;;;;;4897274;29;20056;-79
2021/10/29 13:07:07;;;;;;;12.70;7.88;;;22.40;59.00;;;;;;4897740;29;20036;-81
2021/10/29 13:09:37;;;;;;;10.57;7.57;;;22.10;59.20;;;;;;4881594;29;20127;-88
2021/10/29 13:12:15;;;;;;;13.10;8.52;;;21.80;60.20;;;;;;4895178;29;20052;-82
2021/10/29 13:14:49;;;;;;;10.20;7.70;;;21.80;60.30;;;;;;4895226;29;20056;-84
2021/10/29 13:17:29;;;;;;;12.88;8.10;;;21.80;60.80;;;;;;4894796;29;20055;-84
2021/10/29 13:20:29;;;;;;;10.13;7.15;;;22.80;59.90;;;;;;4894951;29;20047;-82
2021/10/29 13:28:27;;;;;;;12.32;7.75;;;22.60;57.80;;;;;;4896998;29;20104;-87
2021/10/29 13:36:46;;;;;;;12.27;7.55;;;21.30;58.50;;;;;;4895457;29;20045;-85
2021/10/29 13:53:30;;;;;;;13.05;7.53;;;20.40;62.10;;;;;;4881775;29;20475;-89
2021/10/29 13:56:05;;;;;;;12.25;8.80;;;20.60;61.90;;;;;;4881627;29;20061;-83
2021/10/29 14:29:19;;;;;;;10.05;7.15;;;20.50;61.20;;;;;;4900180;29;20441;-78
2021/10/29 14:31:52;;;;;;;10.98;7.53;;;20.30;61.70;;;;;;4914427;29;20043;-91
2021/10/29 14:34:33;;;;;;;9.95;7.03;;;20.20;62.50;;;;;;4902471;29;20040;-88
2021/10/29 14:37:08;;;;;;;14.15;7.40;;;19.90;61.80;;;;;;4899916;29;20053;-82
2021/10/29 14:39:43;;;;;;;10.93;7.07;;;19.90;62.70;;;;;;4899097;29;20075;-84
2021/10/29 14:42:22;;;;;;;10.68;7.13;;;19.60;63.10;;;;;;4898804;29;20051;-80
2021/10/29 14:44:59;;;;;;;10.07;6.82;;;19.40;63.40;;;;;;4898122;29;20068;-84
2021/10/29 15:01:27;;;;;;;11.68;8.15;;;18.50;67.40;;;;;;4898630;29;20067;-86
2021/10/29 15:46:47;;;;;;;50.78;33.38;;;16.60;76.60;;;;;;4903344;29;20048;-85
2021/10/29 15:52:30;;;;;;;11.98;9.10;;;16.40;75.30;;;;;;4898537;29;20064;-84
2021/10/29 15:55:04;;;;;;;14.32;9.93;;;16.30;76.20;;;;;;4916798;29;20056;-81
2021/10/29 15:58:06;;;;;;;15.32;10.35;;;16.20;76.80;;;;;;4896991;29;20052;-83
2021/10/29 16:17:13;;;;;;;18.17;11.45;;;15.40;84.90;;;;;;4913132;29;20044;-85
2021/10/29 16:19:43;;;;;;;18.10;11.57;;;15.30;84.20;;;;;;4914692;29;20076;-85
2021/10/29 16:22:35;;;;;;;21.37;12.60;;;15.20;85.40;;;;;;4913423;29;20050;-82
2021/10/29 16:27:49;;;;;;;27.35;15.65;;;14.90;89.30;;;;;;4914384;29;20048;-82
2021/10/29 16:30:17;;;;;;;34.08;16.52;;;14.90;91.50;;;;;;4930154;29;20151;-80
2021/10/29 16:35:39;;;;;;;32.58;16.65;;;14.70;93.30;;;;;;4915869;29;20130;-82
2021/10/29 16:38:08;;;;;;;31.65;17.50;;;14.70;93.40;;;;;;4915537;29;20123;-85
2021/10/29 16:40:43;;;;;;;30.42;15.90;;;14.60;94.40;;;;;;4930345;29;20056;-81
2021/10/29 16:43:11;;;;;;;34.38;16.98;;;14.60;95.00;;;;;;4915340;29;20068;-82
2021/10/29 16:45:48;;;;;;;24.92;14.82;;;14.50;95.90;;;;;;4914986;29;20040;-77
2021/10/29 16:48:18;;;;;;;40.72;24.83;;;14.60;96.00;;;;;;4913768;29;20429;-78
2021/10/29 16:50:47;;;;;;;123.35;67.10;;;14.90;96.20;;;;;;4915595;29;20397;-81
2021/10/29 16:53:15;;;;;;;51.25;29.20;;;14.90;97.30;;;;;;4914823;29;20043;-80
2021/10/29 16:55:43;;;;;;;56.80;33.80;;;14.60;97.40;;;;;;4914556;29;20272;-84
2021/10/29 16:58:13;;;;;;;95.38;47.20;;;14.60;98.70;;;;;;4898445;29;20448;-81
2021/10/29 17:00:42;;;;;;;51.00;29.00;;;14.60;98.80;;;;;;4898256;29;20412;-82
2021/10/29 17:03:11;;;;;;;48.55;25.52;;;14.50;99.10;;;;;;4913845;29;20128;-84
2021/10/29 17:05:39;;;;;;;50.78;27.17;;;14.00;99.90;;;;;;4915025;29;20112;-81
2021/10/29 17:08:07;;;;;;;53.78;30.60;;;13.60;99.90;;;;;;4914912;29;20060;-83
2021/10/29 17:10:35;;;;;;;56.05;30.80;;;13.40;99.90;;;;;;4913971;29;20445;-82
2021/10/29 17:13:03;;;;;;;57.83;30.98;;;13.70;99.90;;;;;;4913802;29;20136;-82
2021/10/29 17:15:35;;;;;;;54.00;30.77;;;13.70;99.90;;;;;;4915377;29;20145;-80
2021/10/29 17:18:04;;;;;;;56.75;29.27;;;13.70;99.90;;;;;;4898017;29;20136;-80
2021/10/29 17:20:32;;;;;;;54.15;31.17;;;13.80;99.90;;;;;;4898499;29;20051;-82
2021/10/29 17:23:01;;;;;;;56.17;33.28;;;13.80;99.90;;;;;;4914112;29;20067;-79
2021/10/29 17:25:28;;;;;;;57.30;31.45;;;13.80;99.90;;;;;;4912768;29;20040;-80
2021/10/29 17:27:56;;;;;;;60.30;32.90;;;13.70;99.90;;;;;;4917733;29;20068;-82
2021/10/29 17:30:23;;;;;;;54.05;31.33;;;13.30;99.90;;;;;;4915125;29;20070;-77
2021/10/29 17:32:51;;;;;;;58.22;32.45;;;13.00;99.90;;;;;;4917474;29;20461;-79
2021/10/29 17:35:20;;;;;;;75.45;41.15;;;12.90;99.90;;;;;;4915361;29;20048;-79
2021/10/29 17:37:48;;;;;;;74.70;40.85;;;13.30;99.90;;;;;;4917521;29;20036;-79
2021/10/29 17:40:16;;;;;;;62.72;37.20;;;13.40;99.90;;;;;;4900385;29;20123;-79
2021/10/29 17:42:44;;;;;;;54.72;33.65;;;13.40;99.90;;;;;;4916129;29;20047;-80
2021/10/29 17:45:14;;;;;;;54.08;33.63;;;13.10;99.90;;;;;;4916624;29;20127;-80
2021/10/29 17:47:42;;;;;;;56.95;32.08;;;13.00;99.90;;;;;;4915866;29;20054;-81
2021/10/29 17:50:10;;;;;;;53.55;31.85;;;13.30;99.90;;;;;;4920391;29;20032;-79
2021/10/29 17:52:38;;;;;;;46.13;31.60;;;13.30;99.90;;;;;;4922914;29;20080;-79
2021/10/29 17:55:06;;;;;;;52.42;30.83;;;13.10;99.90;;;;;;4925155;29;20452;-80
2021/10/29 17:57:33;;;;;;;49.90;30.42;;;13.20;99.90;;;;;;4924952;29;20044;-80
2021/10/29 18:00:01;;;;;;;44.33;29.60;;;13.20;99.90;;;;;;4927982;29;20453;-77
2021/10/29 18:02:28;;;;;;;41.35;27.90;;;13.20;99.90;;;;;;4929489;29;20050;-80
2021/10/29 18:04:58;;;;;;;49.67;28.10;;;13.20;99.90;;;;;;4919441;29;20181;-82
2021/10/29 18:07:28;;;;;;;48.00;28.00;;;13.10;99.90;;;;;;4903832;29;20043;-79
2021/10/29 18:09:56;;;;;;;45.25;27.85;;;12.90;99.90;;;;;;4937283;29;20118;-80
2021/10/29 18:12:24;;;;;;;52.85;30.02;;;13.00;99.90;;;;;;4936203;29;20130;-81
2021/10/29 18:14:53;;;;;;;53.72;31.27;;;12.80;99.90;;;;;;4936189;29;20048;-83
2021/10/29 18:17:20;;;;;;;111.10;63.28;;;12.80;99.90;;;;;;4937085;29;20047;-79
2021/10/29 18:19:49;;;;;;;90.60;48.75;;;12.90;99.90;;;;;;4935652;29;20063;-77
2021/10/29 18:22:17;;;;;;;63.53;36.20;;;12.90;99.90;;;;;;4937464;29;20053;-85
2021/10/29 18:24:44;;;;;;;52.00;32.75;;;12.70;99.90;;;;;;4938317;29;20046;-82
2021/10/29 18:27:13;;;;;;;56.10;33.85;;;12.50;99.90;;;;;;4937306;29;20126;-82
2021/10/29 18:29:42;;;;;;;63.28;34.88;;;12.40;99.90;;;;;;4920621;29;20075;-80
2021/10/29 18:32:09;;;;;;;57.75;32.58;;;12.50;99.90;;;;;;4920074;29;20070;-83